createdAt,value
2018-05-18T00:00:05.622Z,5.80
2018-05-18T00:02:33.742Z,5.62
2018-05-18T00:05:01.865Z,6.20
2018-05-18T00:07:30.025Z,5.70
2018-05-18T00:09:58.135Z,6.37
2018-05-18T00:12:26.236Z,5.72
2018-05-18T00:14:55.125Z,6.90
2018-05-18T00:17:23.233Z,6.18
2018-05-18T00:19:51.414Z,6.53
2018-05-18T00:22:19.523Z,6.25
2018-05-18T00:24:47.634Z,6.78
2018-05-18T00:27:15.746Z,5.72
2018-05-18T00:29:43.878Z,6.53
2018-05-18T00:32:11.989Z,6.62
2018-05-18T00:34:40.105Z,6.15
2018-05-18T00:37:08.213Z,6.90
2018-05-18T00:39:36.325Z,6.10
2018-05-18T00:42:04.436Z,6.37
2018-05-18T00:44:32.570Z,6.80
2018-05-18T00:47:01.453Z,5.70
2018-05-18T00:49:30.329Z,6.40
2018-05-18T00:51:58.449Z,6.50
2018-05-18T00:54:26.552Z,6.28
2018-05-18T00:56:54.663Z,6.53
2018-05-18T00:59:22.778Z,6.35
2018-05-18T01:01:50.902Z,6.30
2018-05-18T01:04:19.014Z,6.90
2018-05-18T01:06:47.932Z,6.57
2018-05-18T01:09:16.051Z,7.43
2018-05-18T01:11:44.156Z,6.07
2018-05-18T01:14:13.048Z,6.60
2018-05-18T01:16:41.211Z,6.12
2018-05-18T01:19:09.343Z,7.00
2018-05-18T01:21:37.454Z,7.03
2018-05-18T01:24:05.582Z,6.55
2018-05-18T01:26:33.711Z,6.55
2018-05-18T01:29:01.825Z,7.12
2018-05-18T01:31:30.722Z,6.93
2018-05-18T01:33:58.836Z,7.30
2018-05-18T01:36:26.981Z,6.93
2018-05-18T01:38:55.088Z,6.37
2018-05-18T01:41:23.223Z,7.18
2018-05-18T01:43:52.102Z,7.32
2018-05-18T01:46:20.227Z,7.57
2018-05-18T01:48:48.346Z,7.43
2018-05-18T01:51:16.471Z,7.85
2018-05-18T01:53:44.582Z,7.53
2018-05-18T01:56:12.682Z,7.28
2018-05-18T01:58:40.807Z,7.75
2018-05-18T02:01:08.922Z,7.30
2018-05-18T02:03:37.038Z,7.15
2018-05-18T02:06:05.913Z,7.82
2018-05-18T02:08:34.041Z,6.50
2018-05-18T02:11:02.155Z,7.72
2018-05-18T02:13:30.274Z,7.03
2018-05-18T02:15:59.153Z,6.95
2018-05-18T02:18:28.080Z,7.57
2018-05-18T02:20:56.184Z,7.28
2018-05-18T02:23:24.306Z,8.27
2018-05-18T02:25:53.191Z,7.57
2018-05-18T02:28:21.291Z,7.57
2018-05-18T02:30:49.434Z,7.60
2018-05-18T02:33:17.544Z,8.27
2018-05-18T02:35:46.443Z,7.93
2018-05-18T02:38:14.633Z,7.78
2018-05-18T02:40:42.734Z,8.38
2018-05-18T02:43:10.858Z,8.40
2018-05-18T02:45:39.780Z,8.43
2018-05-18T02:48:07.895Z,8.43
2018-05-18T02:50:35.994Z,8.57
2018-05-18T02:53:04.112Z,9.10
2018-05-18T02:55:32.225Z,9.30
2018-05-18T02:58:00.373Z,9.45
2018-05-18T03:00:28.479Z,9.77
2018-05-18T03:02:57.361Z,9.68
2018-05-18T03:05:25.485Z,8.95
2018-05-18T03:07:54.513Z,9.80
2018-05-18T03:10:22.626Z,9.25
2018-05-18T03:12:50.739Z,9.27
2018-05-18T03:15:19.630Z,9.45
2018-05-18T03:17:48.513Z,9.27
2018-05-18T03:20:16.662Z,9.82
2018-05-18T03:22:44.783Z,9.63
2018-05-18T03:25:13.645Z,9.98
2018-05-18T03:27:41.821Z,9.70
2018-05-18T03:30:09.923Z,9.15
2018-05-18T03:32:38.051Z,9.18
2018-05-18T03:35:06.159Z,8.88
2018-05-18T03:37:34.281Z,8.93
2018-05-18T03:40:03.156Z,10.38
2018-05-18T03:42:32.058Z,9.50
2018-05-18T03:45:00.928Z,10.40
2018-05-18T03:47:29.065Z,9.30
2018-05-18T03:49:57.189Z,9.55
2018-05-18T03:52:25.307Z,9.95
2018-05-18T03:54:53.431Z,10.15
2018-05-18T03:57:21.547Z,10.02
2018-05-18T03:59:50.445Z,9.90
2018-05-18T04:02:37.137Z,10.82
2018-05-18T04:05:23.976Z,9.27
2018-05-18T04:08:09.811Z,9.65
2018-05-18T04:10:38.032Z,10.65
2018-05-18T04:13:06.091Z,10.05
2018-05-18T04:15:34.205Z,10.60
2018-05-18T04:18:02.440Z,9.43
2018-05-18T04:20:30.567Z,9.13
2018-05-18T04:22:58.692Z,9.63
2018-05-18T04:25:27.575Z,10.27
2018-05-18T04:27:56.493Z,10.35
2018-05-18T04:30:24.693Z,9.40
2018-05-18T04:32:52.799Z,10.20
2018-05-18T04:35:20.927Z,9.75
2018-05-18T04:37:49.045Z,9.45
2018-05-18T04:40:17.165Z,10.82
2018-05-18T04:42:46.031Z,10.35
2018-05-18T04:45:15.680Z,9.65
2018-05-18T04:47:44.576Z,9.80
2018-05-18T04:50:13.453Z,10.48
2018-05-18T04:52:41.573Z,9.65
2018-05-18T04:55:09.689Z,10.05
2018-05-18T04:57:37.825Z,8.40
2018-05-18T05:00:05.946Z,9.82
2018-05-18T05:02:34.066Z,9.50
2018-05-18T05:05:02.164Z,8.88
2018-05-18T05:07:30.298Z,9.00
2018-05-18T05:09:59.175Z,9.63
2018-05-18T05:12:27.368Z,9.52
2018-05-18T05:14:55.444Z,8.80
2018-05-18T05:17:24.329Z,8.82
2018-05-18T05:19:52.452Z,8.80
2018-05-18T05:22:20.557Z,8.65
2018-05-18T05:24:48.715Z,8.25
2018-05-18T05:27:16.834Z,8.93
2018-05-18T05:29:44.945Z,7.87
2018-05-18T05:32:13.069Z,8.07
2018-05-18T05:34:41.189Z,8.55
2018-05-18T05:37:10.696Z,8.32
2018-05-18T05:39:39.575Z,8.32
2018-05-18T05:42:07.707Z,8.02
2018-05-18T05:44:35.823Z,7.55
2018-05-18T05:47:03.945Z,7.50
2018-05-18T05:49:32.057Z,6.65
2018-05-18T05:52:00.175Z,7.30
2018-05-18T05:54:29.055Z,6.55
2018-05-18T05:56:57.186Z,6.65
2018-05-18T05:59:25.288Z,7.20
2018-05-18T06:01:53.398Z,6.78
2018-05-18T06:04:22.291Z,5.80
2018-05-18T06:06:51.169Z,6.15
2018-05-18T06:09:20.792Z,5.93
2018-05-18T06:11:48.889Z,6.07
2018-05-18T06:14:17.016Z,6.45
2018-05-18T06:16:45.129Z,6.28
2018-05-18T06:19:14.017Z,5.60
2018-05-18T06:21:43.028Z,6.28
2018-05-18T06:24:11.929Z,7.20
2018-05-18T06:26:40.796Z,6.72
2018-05-18T06:29:08.902Z,7.12
2018-05-18T06:31:37.026Z,7.00
2018-05-18T06:34:05.131Z,5.97
2018-05-18T06:36:33.261Z,6.35
2018-05-18T06:39:01.379Z,7.22
2018-05-18T06:41:29.494Z,7.03
2018-05-18T06:43:57.610Z,6.75
2018-05-18T06:46:25.721Z,7.97
2018-05-18T06:48:53.851Z,7.47
2018-05-18T06:51:21.958Z,9.55
2018-05-18T06:53:50.080Z,9.95
2018-05-18T06:56:18.193Z,9.70
2018-05-18T06:58:46.354Z,10.68
2018-05-18T07:01:14.441Z,11.38
2018-05-18T07:03:42.556Z,11.40
2018-05-18T07:06:10.674Z,11.82
2018-05-18T07:08:38.791Z,12.68
2018-05-18T07:11:06.914Z,13.50
2018-05-18T07:13:35.021Z,13.80
2018-05-18T07:16:03.138Z,13.20
2018-05-18T07:18:32.041Z,14.77
2018-05-18T07:21:00.179Z,13.82
2018-05-18T07:23:28.290Z,15.70
2018-05-18T07:25:56.411Z,15.32
2018-05-18T07:28:24.536Z,15.18
2018-05-18T07:30:52.643Z,15.02
2018-05-18T07:33:21.546Z,14.70
2018-05-18T07:35:49.656Z,14.00
2018-05-18T07:38:17.770Z,14.98
2018-05-18T07:40:45.892Z,14.87
2018-05-18T07:43:14.049Z,15.05
2018-05-18T07:45:42.919Z,15.75
2018-05-18T07:48:11.046Z,15.13
2018-05-18T07:50:39.165Z,13.90
2018-05-18T07:53:07.291Z,13.23
2018-05-18T07:55:35.410Z,14.93
2018-05-18T07:58:03.535Z,14.38
2018-05-18T08:00:31.666Z,14.57
2018-05-18T08:02:59.801Z,15.20
2018-05-18T08:05:27.916Z,15.70
2018-05-18T08:07:56.101Z,15.80
2018-05-18T08:10:24.206Z,16.02
2018-05-18T08:12:53.130Z,16.17
2018-05-18T08:15:21.243Z,16.92
2018-05-18T08:17:49.350Z,15.38
2018-05-18T08:20:18.239Z,16.00
2018-05-18T08:22:46.365Z,15.52
2018-05-18T08:25:14.481Z,15.00
2018-05-18T08:27:42.631Z,15.23
2018-05-18T08:30:10.756Z,15.27
2018-05-18T08:32:38.873Z,15.90
2018-05-18T08:35:06.988Z,15.80
2018-05-18T08:37:35.095Z,15.73
2018-05-18T08:40:03.974Z,15.48
2018-05-18T08:42:32.114Z,15.43
2018-05-18T08:45:00.223Z,16.45
2018-05-18T08:47:28.341Z,16.87
2018-05-18T08:49:56.488Z,16.42
2018-05-18T08:52:24.629Z,17.42
2018-05-18T08:54:52.767Z,17.42
2018-05-18T08:57:20.913Z,16.83
2018-05-18T08:59:49.054Z,16.48
2018-05-18T09:02:17.162Z,16.00
2018-05-18T09:04:45.310Z,15.23
2018-05-18T09:07:13.430Z,15.90
2018-05-18T09:09:41.548Z,17.73
2018-05-18T09:12:09.688Z,16.90
2018-05-18T09:14:37.817Z,18.05
2018-05-18T09:17:05.937Z,17.60
2018-05-18T09:19:34.901Z,18.55
2018-05-18T09:22:03.053Z,18.37
2018-05-18T09:24:31.169Z,17.95
2018-05-18T09:26:59.322Z,15.18
2018-05-18T09:29:27.440Z,12.95
2018-05-18T09:31:55.553Z,12.05
2018-05-18T09:34:23.674Z,12.10
2018-05-18T09:36:51.794Z,12.52
2018-05-18T09:39:20.759Z,12.30
2018-05-18T09:41:48.866Z,11.90
2018-05-18T09:44:17.752Z,10.90
2018-05-18T09:46:46.635Z,10.00
2018-05-18T09:49:14.797Z,10.07
2018-05-18T09:51:42.909Z,9.52
2018-05-18T09:54:11.809Z,11.25
2018-05-18T09:56:40.705Z,11.30
2018-05-18T09:59:09.584Z,11.85
2018-05-18T10:01:38.477Z,11.23
2018-05-18T10:04:06.597Z,13.02
2018-05-18T10:06:34.728Z,12.70
2018-05-18T10:09:02.848Z,12.85
2018-05-18T10:11:30.979Z,11.63
2018-05-18T10:13:59.173Z,13.27
2018-05-18T10:16:28.101Z,11.65
2018-05-18T10:18:56.249Z,12.85
2018-05-18T10:21:25.151Z,14.95
2018-05-18T10:23:54.033Z,14.65
2018-05-18T10:26:22.927Z,14.77
2018-05-18T10:28:51.821Z,14.07
2018-05-18T10:31:19.941Z,13.25
2018-05-18T10:33:48.083Z,14.38
2018-05-18T10:36:16.959Z,13.50
2018-05-18T10:38:45.113Z,14.80
2018-05-18T10:41:13.226Z,15.82
2018-05-18T10:43:42.139Z,18.40
2018-05-18T10:46:11.024Z,19.27
2018-05-18T10:48:39.918Z,20.58
2018-05-18T10:51:08.805Z,19.58
2018-05-18T10:53:37.713Z,21.37
2018-05-18T10:56:06.620Z,18.48
2018-05-18T10:58:34.751Z,16.08
2018-05-18T11:01:02.906Z,15.63
2018-05-18T11:03:31.020Z,15.52
2018-05-18T11:05:59.916Z,13.48
2018-05-18T11:08:28.179Z,14.18
2018-05-18T11:10:56.309Z,14.40
2018-05-18T11:13:24.490Z,16.62
2018-05-18T11:15:52.612Z,15.82
2018-05-18T11:18:20.768Z,16.65
2018-05-18T11:20:48.892Z,16.85
2018-05-18T11:23:17.805Z,16.25
2018-05-18T11:25:46.685Z,16.37
2018-05-18T11:28:15.576Z,17.23
2018-05-18T11:30:44.465Z,17.87
2018-05-18T11:33:12.629Z,17.12
2018-05-18T11:35:40.733Z,16.95
2018-05-18T11:38:09.621Z,16.73
2018-05-18T11:40:37.746Z,16.75
2018-05-18T11:43:05.866Z,17.42
2018-05-18T11:45:34.304Z,16.60
2018-05-18T11:48:02.472Z,17.37
2018-05-18T11:50:31.347Z,15.80
2018-05-18T11:53:00.238Z,16.95
2018-05-18T11:55:29.152Z,16.90
2018-05-18T11:57:57.385Z,17.30
2018-05-18T12:00:25.522Z,16.98
2018-05-18T12:02:53.769Z,15.00
2018-05-18T12:05:21.885Z,14.87
2018-05-18T12:07:50.045Z,14.23
2018-05-18T12:10:18.194Z,13.52
2018-05-18T12:12:46.301Z,14.55
2018-05-18T12:15:14.426Z,16.02
2018-05-18T12:17:42.568Z,15.40
2018-05-18T12:20:10.679Z,15.30
2018-05-18T12:22:38.830Z,18.67
2018-05-18T12:25:06.948Z,18.20
2018-05-18T12:27:35.087Z,19.15
2018-05-18T12:30:03.220Z,18.80
2018-05-18T12:32:32.121Z,18.87
2018-05-18T12:35:00.998Z,20.67
2018-05-18T12:37:29.142Z,21.67
2018-05-18T12:39:57.261Z,20.12
2018-05-18T12:42:26.146Z,21.00
2018-05-18T12:44:55.053Z,21.90
2018-05-18T12:47:23.945Z,23.58
2018-05-18T12:49:52.850Z,20.25
2018-05-18T12:52:21.725Z,21.33
2018-05-18T12:54:49.845Z,21.55
2018-05-18T12:57:17.973Z,22.65
2018-05-18T12:59:46.085Z,22.48
2018-05-18T13:02:14.229Z,22.90
2018-05-18T13:04:42.363Z,25.42
2018-05-18T13:07:10.528Z,24.52
2018-05-18T13:09:38.649Z,22.52
2018-05-18T13:12:06.789Z,23.10
2018-05-18T13:14:34.904Z,21.62
2018-05-18T13:17:03.031Z,20.83
2018-05-18T13:19:31.174Z,21.05
2018-05-18T13:21:59.303Z,20.83
2018-05-18T13:24:27.436Z,19.80
2018-05-18T13:26:55.565Z,20.55
2018-05-18T13:29:23.710Z,22.33
2018-05-18T13:31:52.588Z,22.15
2018-05-18T13:34:20.840Z,23.52
2018-05-18T13:36:48.966Z,22.27
2018-05-18T13:39:17.110Z,21.92
2018-05-18T13:41:45.238Z,20.08
2018-05-18T13:44:13.346Z,21.73
2018-05-18T13:46:41.552Z,21.20
2018-05-18T13:49:09.669Z,22.73
2018-05-18T13:51:37.865Z,21.65
2018-05-18T13:54:06.685Z,21.77
2018-05-18T13:56:34.839Z,22.10
2018-05-18T13:59:02.951Z,21.67
2018-05-18T14:01:31.082Z,21.65
2018-05-18T14:03:59.206Z,21.83
2018-05-18T14:06:27.330Z,22.73
2018-05-18T14:08:55.465Z,21.70
2018-05-18T14:11:23.615Z,22.40
2018-05-18T14:13:51.748Z,21.58
2018-05-18T14:16:19.858Z,21.12
2018-05-18T14:18:48.003Z,21.10
2018-05-18T14:21:16.131Z,19.92
2018-05-18T14:23:44.269Z,18.23
2018-05-18T14:26:12.393Z,18.05
2018-05-18T14:28:40.509Z,16.95
2018-05-18T14:31:09.407Z,14.23
2018-05-18T14:33:37.528Z,15.35
2018-05-18T14:36:05.650Z,13.30
2018-05-18T14:38:34.542Z,13.00
2018-05-18T14:41:03.461Z,12.57
2018-05-18T14:43:31.588Z,11.43
2018-05-18T14:45:59.727Z,11.35
2018-05-18T14:48:27.841Z,10.68
2018-05-18T14:50:55.971Z,13.10
2018-05-18T14:53:24.121Z,13.77
2018-05-18T14:55:52.289Z,12.85
2018-05-18T14:58:20.410Z,12.27
2018-05-18T15:00:48.516Z,12.27
2018-05-18T15:03:16.657Z,14.30
2018-05-18T15:05:44.952Z,16.55
2018-05-18T15:08:13.073Z,17.73
2018-05-18T15:10:41.206Z,17.08
2018-05-18T15:13:09.385Z,15.65
2018-05-18T15:15:37.554Z,14.52
2018-05-18T15:18:05.676Z,11.80
2018-05-18T15:20:33.838Z,13.38
2018-05-18T15:23:01.962Z,12.95
2018-05-18T15:25:30.867Z,12.93
2018-05-18T15:27:58.991Z,13.15
2018-05-18T15:30:27.118Z,14.45
2018-05-18T15:32:55.999Z,13.73
2018-05-18T15:35:24.950Z,14.27
2018-05-18T15:37:53.108Z,14.82
2018-05-18T15:40:21.228Z,14.87
2018-05-18T15:42:49.368Z,13.30
2018-05-18T15:45:17.485Z,14.32
2018-05-18T15:47:45.606Z,13.05
2018-05-18T15:50:13.713Z,12.80
2018-05-18T15:52:41.858Z,13.65
2018-05-18T15:55:09.986Z,13.85
2018-05-18T15:57:38.129Z,15.52
2018-05-18T16:00:06.261Z,15.32
2018-05-18T16:02:34.785Z,12.75
2018-05-18T16:05:02.934Z,13.70
2018-05-18T16:07:31.814Z,12.57
2018-05-18T16:09:59.946Z,12.45
2018-05-18T16:12:28.073Z,12.88
2018-05-18T16:14:56.380Z,12.00
2018-05-18T16:17:25.275Z,12.63
2018-05-18T16:19:54.213Z,11.07
2018-05-18T16:22:22.333Z,9.85
2018-05-18T16:24:51.214Z,9.57
2018-05-18T16:27:19.371Z,9.15
2018-05-18T16:29:47.509Z,7.65
2018-05-18T16:32:16.377Z,9.30
2018-05-18T16:34:45.273Z,8.93
2018-05-18T16:37:14.158Z,8.70
2018-05-18T16:39:42.296Z,8.48
2018-05-18T16:42:10.434Z,8.15
2018-05-18T16:44:38.644Z,6.90
2018-05-18T16:47:06.819Z,7.65
2018-05-18T16:49:34.958Z,7.35
2018-05-18T16:52:03.847Z,7.28
2018-05-18T16:54:32.766Z,7.72
2018-05-18T16:57:00.893Z,8.73
2018-05-18T16:59:29.925Z,7.65
2018-05-18T17:01:58.847Z,6.65
2018-05-18T17:04:26.964Z,7.87
2018-05-18T17:06:55.114Z,8.35
2018-05-18T17:09:23.264Z,6.50
2018-05-18T17:11:51.386Z,7.40
2018-05-18T17:14:19.515Z,7.35
2018-05-18T17:16:48.422Z,6.85
2018-05-18T17:19:17.299Z,7.05
2018-05-18T17:21:46.201Z,7.15
2018-05-18T17:24:15.073Z,6.62
2018-05-18T17:26:43.217Z,8.35
2018-05-18T17:29:11.348Z,7.93
2018-05-18T17:31:40.253Z,8.30
2018-05-18T17:34:08.407Z,8.10
2018-05-18T17:36:36.536Z,8.07
2018-05-18T17:39:04.676Z,8.35
2018-05-18T17:41:33.568Z,8.80
2018-05-18T17:44:02.473Z,8.55
2018-05-18T17:46:31.360Z,9.23
2018-05-18T17:49:00.347Z,9.25
2018-05-18T17:51:28.442Z,8.18
2018-05-18T17:53:57.325Z,8.85
2018-05-18T17:56:26.244Z,8.40
2018-05-18T17:58:54.379Z,7.76
2018-05-18T18:01:22.582Z,8.20
2018-05-18T18:03:52.177Z,8.65
2018-05-18T18:06:21.118Z,9.00
2018-05-18T18:08:49.246Z,8.70
2018-05-18T18:11:18.190Z,8.65
2018-05-18T18:13:46.314Z,9.52
2018-05-18T18:16:14.697Z,8.32
2018-05-18T18:18:42.833Z,8.38
2018-05-18T18:21:10.966Z,8.45
2018-05-18T18:23:39.874Z,8.32
2018-05-18T18:26:08.791Z,8.60
2018-05-18T18:28:36.969Z,9.35
2018-05-18T18:31:05.105Z,8.82
2018-05-18T18:33:33.248Z,7.62
2018-05-18T18:36:01.385Z,8.40
2018-05-18T18:38:30.332Z,8.57
2018-05-18T18:40:58.481Z,8.90
2018-05-18T18:43:26.687Z,37.83
2018-05-18T18:45:55.649Z,13.82
2018-05-18T18:48:23.844Z,9.02
2018-05-18T18:50:51.969Z,8.88
2018-05-18T18:53:20.115Z,8.77
2018-05-18T18:55:48.262Z,9.63
2018-05-18T18:58:16.384Z,9.73
2018-05-18T19:00:44.522Z,9.15
2018-05-18T19:03:12.650Z,8.68
2018-05-18T19:05:40.793Z,8.77
2018-05-18T19:08:08.921Z,9.25
2018-05-18T19:10:37.819Z,9.18
2018-05-18T19:13:06.705Z,8.27
2018-05-18T19:15:35.595Z,8.23
2018-05-18T19:18:04.486Z,8.38
2018-05-18T19:20:33.402Z,8.35
2018-05-18T19:23:02.298Z,9.55
2018-05-18T19:25:31.195Z,8.10
2018-05-18T19:28:00.097Z,8.77
2018-05-18T19:30:28.390Z,9.50
2018-05-18T19:32:56.530Z,8.63
2018-05-18T19:35:24.660Z,7.68
2018-05-18T19:37:52.786Z,8.52
2018-05-18T19:40:21.685Z,7.90
2018-05-18T19:42:49.814Z,8.25
2018-05-18T19:45:17.928Z,8.65
2018-05-18T19:47:46.065Z,7.28
2018-05-18T19:50:14.190Z,7.12
2018-05-18T19:52:42.342Z,8.40
2018-05-18T19:55:10.476Z,7.97
2018-05-18T19:57:38.617Z,8.50
2018-05-18T20:00:07.534Z,8.75
2018-05-18T20:02:36.434Z,9.38
2018-05-18T20:05:05.347Z,8.70
2018-05-18T20:07:33.486Z,7.78
2018-05-18T20:10:02.373Z,9.00
2018-05-18T20:12:31.263Z,9.27
2018-05-18T20:14:59.393Z,9.27
2018-05-18T20:17:27.535Z,7.82
2018-05-18T20:19:55.669Z,8.55
2018-05-18T20:22:23.798Z,8.73
2018-05-18T20:24:52.707Z,9.98
2018-05-18T20:27:21.597Z,9.48
2018-05-18T20:29:49.759Z,9.35
2018-05-18T20:32:18.647Z,10.13
2018-05-18T20:34:47.542Z,10.20
2018-05-18T20:37:16.441Z,11.80
2018-05-18T20:39:44.602Z,10.90
2018-05-18T20:42:12.737Z,8.85
2018-05-18T20:44:40.845Z,9.32
2018-05-18T20:47:08.985Z,9.63
2018-05-18T20:49:37.101Z,8.60
2018-05-18T20:52:05.270Z,8.43
2018-05-18T20:54:33.393Z,9.27
2018-05-18T20:57:02.292Z,9.02
2018-05-18T20:59:31.214Z,8.63
2018-05-18T21:01:59.341Z,8.40
2018-05-18T21:04:27.506Z,7.75
2018-05-18T21:06:55.630Z,7.18
2018-05-18T21:09:24.533Z,7.78
2018-05-18T21:11:52.652Z,7.20
2018-05-18T21:14:20.791Z,7.87
2018-05-18T21:16:48.897Z,7.62
2018-05-18T21:19:17.023Z,6.28
2018-05-18T21:21:45.949Z,6.50
2018-05-18T21:24:14.102Z,6.60
2018-05-18T21:26:43.060Z,6.82
2018-05-18T21:29:11.954Z,7.10
2018-05-18T21:31:40.101Z,8.48
2018-05-18T21:34:08.222Z,9.65
2018-05-18T21:36:36.355Z,11.60
2018-05-18T21:39:05.271Z,12.15
2018-05-18T21:41:33.400Z,12.85
2018-05-18T21:44:02.289Z,10.95
2018-05-18T21:46:31.204Z,11.23
2018-05-18T21:48:59.327Z,9.52
2018-05-18T21:51:27.471Z,9.27
2018-05-18T21:53:55.590Z,8.88
2018-05-18T21:56:23.723Z,10.25
2018-05-18T21:58:51.854Z,10.02
2018-05-18T22:01:19.957Z,8.82
2018-05-18T22:03:48.849Z,9.32
2018-05-18T22:06:17.732Z,9.15
2018-05-18T22:08:46.625Z,9.63
2018-05-18T22:11:14.742Z,10.73
2018-05-18T22:13:42.872Z,9.98
2018-05-18T22:16:10.989Z,10.00
2018-05-18T22:18:39.118Z,10.50
2018-05-18T22:21:08.091Z,10.23
2018-05-18T22:23:36.208Z,10.77
2018-05-18T22:26:05.115Z,9.57
2018-05-18T22:28:34.013Z,7.90
2018-05-18T22:31:02.163Z,9.27
2018-05-18T22:33:30.279Z,9.45
2018-05-18T22:35:58.411Z,10.13
2018-05-18T22:38:26.548Z,9.30
2018-05-18T22:40:54.654Z,8.98
2018-05-18T22:43:22.800Z,8.68
2018-05-18T22:45:50.973Z,7.90
2018-05-18T22:48:19.081Z,8.70
2018-05-18T22:50:47.203Z,8.02
2018-05-18T22:53:15.342Z,8.38
2018-05-18T22:55:43.487Z,8.63
2018-05-18T22:58:11.590Z,7.22
2018-05-18T23:00:39.724Z,7.85
2018-05-18T23:03:08.597Z,7.05
2018-05-18T23:05:36.713Z,7.07
2018-05-18T23:08:04.818Z,8.10
2018-05-18T23:10:32.942Z,7.87
2018-05-18T23:13:01.817Z,7.05
2018-05-18T23:15:29.937Z,7.70
2018-05-18T23:17:58.044Z,7.25
2018-05-18T23:20:26.169Z,7.65
2018-05-18T23:22:55.053Z,6.75
2018-05-18T23:25:23.949Z,7.57
2018-05-18T23:27:52.832Z,8.13
2018-05-18T23:30:20.953Z,7.62
2018-05-18T23:32:49.084Z,7.93
2018-05-18T23:35:17.206Z,7.90
2018-05-18T23:37:45.364Z,8.07
2018-05-18T23:40:14.247Z,7.37
2018-05-18T23:42:43.139Z,7.68
2018-05-18T23:45:12.023Z,8.23
2018-05-18T23:47:40.169Z,7.85
2018-05-18T23:50:08.286Z,7.82
2018-05-18T23:52:36.430Z,8.38
2018-05-18T23:55:04.546Z,8.90
2018-05-18T23:57:33.440Z,9.23
